createdAt,value
2023-01-05T00:00:32.537Z,11.20
2023-01-05T00:01:14.395Z,11.14
2023-01-05T00:01:56.224Z,11.13
2023-01-05T00:02:37.940Z,11.21
2023-01-05T00:03:19.971Z,11.20
2023-01-05T00:04:01.768Z,11.22
2023-01-05T00:04:45.132Z,11.11
2023-01-05T00:05:26.723Z,11.15
2023-01-05T00:06:12.537Z,11.20
2023-01-05T00:06:54.232Z,11.21
2023-01-05T00:07:35.902Z,11.21
2023-01-05T00:08:17.556Z,11.17
2023-01-05T00:08:59.923Z,11.06
2023-01-05T00:09:41.569Z,11.13
2023-01-05T00:10:41.815Z,11.14
2023-01-05T00:11:43.112Z,11.08
2023-01-05T00:12:51.108Z,11.11
2023-01-05T00:13:51.255Z,11.14
2023-01-05T00:14:52.969Z,11.09
2023-01-05T00:15:56.379Z,11.09
2023-01-05T00:16:56.822Z,11.22
2023-01-05T00:17:57.123Z,10.85
2023-01-05T00:18:57.173Z,11.11
2023-01-05T00:19:57.408Z,11.13
2023-01-05T00:20:57.473Z,11.20
2023-01-05T00:21:57.525Z,11.26
2023-01-05T00:22:57.569Z,11.21
2023-01-05T00:23:39.203Z,11.13
2023-01-05T00:24:20.827Z,10.86
2023-01-05T00:25:12.474Z,11.26
2023-01-05T00:25:54.502Z,11.27
2023-01-05T00:26:36.164Z,11.26
2023-01-05T00:27:17.850Z,11.23
2023-01-05T00:27:59.674Z,11.24
2023-01-05T00:28:41.325Z,11.24
2023-01-05T00:29:23.773Z,10.97
2023-01-05T00:30:07.121Z,11.18
2023-01-05T00:30:48.796Z,11.26
2023-01-05T00:31:30.488Z,11.26
2023-01-05T00:32:12.185Z,11.22
2023-01-05T00:32:54.205Z,11.23
2023-01-05T00:33:35.837Z,11.23
2023-01-05T00:34:17.455Z,11.10
2023-01-05T00:34:59.452Z,11.12
2023-01-05T00:35:41.185Z,11.13
2023-01-05T00:36:22.769Z,11.25
2023-01-05T00:37:04.379Z,11.24
2023-01-05T00:37:47.288Z,11.25
2023-01-05T00:38:28.917Z,11.30
2023-01-05T00:39:10.491Z,11.12
2023-01-05T00:39:53.839Z,11.22
2023-01-05T00:40:36.545Z,11.28
2023-01-05T00:41:18.247Z,11.28
2023-01-05T00:42:00.046Z,11.18
2023-01-05T00:42:42.009Z,11.19
2023-01-05T00:43:24.937Z,11.26
2023-01-05T00:44:06.722Z,11.24
2023-01-05T00:44:48.379Z,11.23
2023-01-05T00:45:30.113Z,10.91
2023-01-05T00:46:11.842Z,11.02
2023-01-05T00:46:54.196Z,11.15
2023-01-05T00:47:35.855Z,11.09
2023-01-05T00:48:17.539Z,10.73
2023-01-05T00:48:59.136Z,11.06
2023-01-05T00:49:41.005Z,11.24
2023-01-05T00:50:22.957Z,11.25
2023-01-05T00:51:04.770Z,11.27
2023-01-05T00:51:46.703Z,11.10
2023-01-05T00:52:28.332Z,11.22
2023-01-05T00:53:12.536Z,11.26
2023-01-05T00:53:54.128Z,11.19
2023-01-05T00:54:35.735Z,11.24
2023-01-05T00:55:17.722Z,11.23
2023-01-05T00:55:59.917Z,10.69
2023-01-05T00:56:41.515Z,11.21
2023-01-05T00:57:23.195Z,10.87
2023-01-05T00:58:07.591Z,11.23
2023-01-05T00:58:54.409Z,11.22
2023-01-05T00:59:36.180Z,11.20
2023-01-05T01:00:19.583Z,11.16
2023-01-05T01:01:01.632Z,11.22
2023-01-05T01:01:50.661Z,10.95
2023-01-05T01:02:32.656Z,11.11
2023-01-05T01:03:14.455Z,10.89
2023-01-05T01:03:56.387Z,11.21
2023-01-05T01:04:38.346Z,11.22
2023-01-05T01:05:20.041Z,11.11
2023-01-05T01:06:01.725Z,11.11
2023-01-05T01:06:43.563Z,11.17
2023-01-05T01:07:26.013Z,10.90
2023-01-05T01:08:07.627Z,11.02
2023-01-05T01:08:49.434Z,11.11
2023-01-05T01:09:31.897Z,11.14
2023-01-05T01:10:13.634Z,11.13
2023-01-05T01:10:55.270Z,11.14
2023-01-05T01:11:37.067Z,11.22
2023-01-05T01:12:18.727Z,11.29
2023-01-05T01:13:00.354Z,11.22
2023-01-05T01:13:44.155Z,11.29
2023-01-05T01:14:26.521Z,11.20
2023-01-05T01:15:09.150Z,11.22
2023-01-05T01:15:50.796Z,11.15
2023-01-05T01:16:33.074Z,11.21
2023-01-05T01:17:15.726Z,11.26
2023-01-05T01:17:57.414Z,11.19
2023-01-05T01:18:40.799Z,11.26
2023-01-05T01:19:24.988Z,11.27
2023-01-05T01:20:07.226Z,11.26
2023-01-05T01:20:49.165Z,11.04
2023-01-05T01:21:30.812Z,11.24
2023-01-05T01:22:13.113Z,11.29
2023-01-05T01:22:54.708Z,11.21
2023-01-05T01:23:37.811Z,11.26
2023-01-05T01:24:25.676Z,11.29
2023-01-05T01:25:07.645Z,11.31
2023-01-05T01:25:49.284Z,11.31
2023-01-05T01:26:30.989Z,11.18
2023-01-05T01:27:12.642Z,11.23
2023-01-05T01:27:54.506Z,11.17
2023-01-05T01:28:36.249Z,11.24
2023-01-05T01:29:18.482Z,11.33
2023-01-05T01:30:00.211Z,11.34
2023-01-05T01:30:41.890Z,11.34
2023-01-05T01:31:24.083Z,11.33
2023-01-05T01:32:05.850Z,11.30
2023-01-05T01:32:47.624Z,11.30
2023-01-05T01:33:29.849Z,11.18
2023-01-05T01:34:11.607Z,11.21
2023-01-05T01:34:55.131Z,11.29
2023-01-05T01:35:39.445Z,11.27
2023-01-05T01:36:21.277Z,11.27
2023-01-05T01:37:48.251Z,11.27
2023-01-05T01:38:29.962Z,11.28
2023-01-05T01:39:12.545Z,11.29
2023-01-05T01:39:57.128Z,11.23
2023-01-05T01:40:44.116Z,11.15
2023-01-05T01:41:26.616Z,11.26
2023-01-05T01:42:14.416Z,11.28
2023-01-05T01:42:57.339Z,11.07
2023-01-05T01:43:50.824Z,11.28
2023-01-05T01:44:59.039Z,11.31
2023-01-05T01:45:46.804Z,11.16
2023-01-05T01:46:29.156Z,11.21
2023-01-05T01:47:15.543Z,11.02
2023-01-05T01:48:00.244Z,11.37
2023-01-05T01:48:47.314Z,11.25
2023-01-05T01:49:28.930Z,11.27
2023-01-05T01:50:22.147Z,11.35
2023-01-05T01:51:10.824Z,11.26
2023-01-05T01:51:52.436Z,11.16
2023-01-05T01:52:35.192Z,11.33
2023-01-05T01:53:28.315Z,11.32
2023-01-05T01:54:14.408Z,11.31
2023-01-05T01:54:56.772Z,11.24
2023-01-05T01:55:39.589Z,11.29
2023-01-05T01:56:24.346Z,11.35
2023-01-05T01:57:09.618Z,11.30
2023-01-05T01:57:51.835Z,11.25
2023-01-05T01:58:34.144Z,11.13
2023-01-05T01:59:17.315Z,11.33
2023-01-05T02:00:02.562Z,11.31
2023-01-05T02:00:47.511Z,11.29
2023-01-05T02:01:29.620Z,11.32
2023-01-05T02:02:12.728Z,11.27
2023-01-05T02:02:56.140Z,11.12
2023-01-05T02:03:38.817Z,11.28
2023-01-05T02:04:23.612Z,11.30
2023-01-05T02:05:09.222Z,11.31
2023-01-05T02:05:50.849Z,11.26
2023-01-05T02:06:32.693Z,11.27
2023-01-05T02:07:16.146Z,11.35
2023-01-05T02:07:57.944Z,11.24
2023-01-05T02:08:39.775Z,11.28
2023-01-05T02:09:21.557Z,10.99
2023-01-05T02:10:04.617Z,11.32
2023-01-05T02:11:12.319Z,11.38
2023-01-05T02:12:23.216Z,11.30
2023-01-05T02:13:16.583Z,11.29
2023-01-05T02:14:45.687Z,11.25
2023-01-05T02:16:07.691Z,11.24
2023-01-05T02:17:01.949Z,11.25
2023-01-05T02:18:06.896Z,11.13
2023-01-05T02:19:13.378Z,11.25
2023-01-05T02:20:33.764Z,11.14
2023-01-05T02:21:22.181Z,11.24
2023-01-05T02:22:26.171Z,11.23
2023-01-05T02:23:26.623Z,11.20
2023-01-05T02:24:50.756Z,11.06
2023-01-05T02:25:54.839Z,11.10
2023-01-05T02:27:01.039Z,11.04
2023-01-05T02:28:09.354Z,10.96
2023-01-05T02:29:02.822Z,10.96
2023-01-05T02:30:20.607Z,10.98
2023-01-05T02:31:47.274Z,10.91
2023-01-05T02:32:39.981Z,10.83
2023-01-05T02:33:32.517Z,10.82
2023-01-05T02:34:28.902Z,10.81
2023-01-05T02:35:21.233Z,10.92
2023-01-05T02:36:30.389Z,10.95
2023-01-05T02:37:30.887Z,10.77
2023-01-05T02:39:13.911Z,11.00
2023-01-05T02:40:04.921Z,11.03
2023-01-05T02:40:57.256Z,11.03
2023-01-05T02:42:13.130Z,11.03
2023-01-05T02:42:57.988Z,10.96
2023-01-05T02:43:39.944Z,11.02
2023-01-05T02:44:21.846Z,10.82
2023-01-05T02:45:08.447Z,11.03
2023-01-05T02:45:50.182Z,10.85
2023-01-05T02:46:31.859Z,10.88
2023-01-05T02:47:25.644Z,11.07
2023-01-05T02:48:07.339Z,11.08
2023-01-05T02:48:53.128Z,11.05
2023-01-05T02:49:40.850Z,11.03
2023-01-05T02:50:32.213Z,11.05
2023-01-05T02:51:24.958Z,10.97
2023-01-05T02:52:09.683Z,11.06
2023-01-05T02:53:00.338Z,11.07
2023-01-05T02:53:48.748Z,11.10
2023-01-05T02:54:38.614Z,11.02
2023-01-05T02:55:26.373Z,11.08
2023-01-05T02:56:18.012Z,11.18
2023-01-05T02:57:08.060Z,11.11
2023-01-05T02:58:14.322Z,11.25
2023-01-05T02:59:02.816Z,11.25
2023-01-05T02:59:51.003Z,11.16
2023-01-05T03:00:41.128Z,11.13
2023-01-05T03:01:25.766Z,11.21
2023-01-05T03:02:20.856Z,11.25
2023-01-05T03:03:25.656Z,11.03
2023-01-05T03:04:21.968Z,11.24
2023-01-05T03:05:17.379Z,11.14
2023-01-05T03:06:10.466Z,11.12
2023-01-05T03:07:01.967Z,11.13
2023-01-05T03:07:46.925Z,11.16
2023-01-05T03:08:33.526Z,11.15
2023-01-05T03:09:20.049Z,11.26
2023-01-05T03:10:25.718Z,11.21
2023-01-05T03:11:29.558Z,11.19
2023-01-05T03:12:36.308Z,11.27
2023-01-05T03:13:37.481Z,10.80
2023-01-05T03:14:36.835Z,11.35
2023-01-05T03:15:25.022Z,11.36
2023-01-05T03:16:16.348Z,11.30
2023-01-05T03:17:01.301Z,11.20
2023-01-05T03:17:49.834Z,11.07
2023-01-05T03:18:33.948Z,11.18
2023-01-05T03:19:55.171Z,11.37
2023-01-05T03:20:43.250Z,11.20
2023-01-05T03:21:27.260Z,11.17
2023-01-05T03:22:40.541Z,11.28
2023-01-05T03:23:42.320Z,11.25
2023-01-05T03:24:42.823Z,11.31
2023-01-05T03:25:46.117Z,11.34
2023-01-05T03:26:48.212Z,11.35
2023-01-05T03:27:50.145Z,10.97
2023-01-05T03:28:56.361Z,11.35
2023-01-05T03:30:01.152Z,11.24
2023-01-05T03:31:13.828Z,11.36
2023-01-05T03:32:30.233Z,11.38
2023-01-05T03:33:49.656Z,11.37
2023-01-05T03:35:13.953Z,11.35
2023-01-05T03:35:58.816Z,11.31
2023-01-05T03:36:49.202Z,11.33
2023-01-05T03:37:37.147Z,11.36
2023-01-05T03:38:25.588Z,11.35
2023-01-05T03:39:09.606Z,11.14
2023-01-05T03:39:52.232Z,11.32
2023-01-05T03:40:37.809Z,11.43
2023-01-05T03:41:20.480Z,11.14
2023-01-05T03:42:02.663Z,11.36
2023-01-05T03:42:46.434Z,11.45
2023-01-05T03:43:28.507Z,11.42
2023-01-05T03:44:10.482Z,11.44
2023-01-05T03:44:54.915Z,11.00
2023-01-05T03:45:41.341Z,11.42
2023-01-05T03:46:28.165Z,11.25
2023-01-05T03:47:09.876Z,11.28
2023-01-05T03:47:51.954Z,11.03
2023-01-05T03:48:38.855Z,11.26
2023-01-05T03:49:21.436Z,11.26
2023-01-05T03:50:05.547Z,11.28
2023-01-05T03:50:47.446Z,11.13
2023-01-05T03:51:32.133Z,11.00
2023-01-05T03:52:16.640Z,11.16
2023-01-05T03:52:58.384Z,11.30
2023-01-05T03:53:44.142Z,11.22
2023-01-05T03:54:25.818Z,11.29
2023-01-05T03:55:07.874Z,11.41
2023-01-05T03:55:49.586Z,11.25
2023-01-05T03:56:31.531Z,11.40
2023-01-05T03:57:13.420Z,11.33
2023-01-05T03:57:55.175Z,11.11
2023-01-05T03:58:37.077Z,11.29
2023-01-05T03:59:19.322Z,11.19
2023-01-05T04:00:02.388Z,10.90
2023-01-05T04:00:45.581Z,11.20
2023-01-05T04:01:29.318Z,10.91
2023-01-05T04:02:11.233Z,11.22
2023-01-05T04:02:53.665Z,11.10
2023-01-05T04:03:37.216Z,10.82
2023-01-05T04:04:21.273Z,11.20
2023-01-05T04:05:03.172Z,11.18
2023-01-05T04:05:45.355Z,11.18
2023-01-05T04:06:27.332Z,11.20
2023-01-05T04:07:08.925Z,11.08
2023-01-05T04:07:51.070Z,11.14
2023-01-05T04:08:32.684Z,11.16
2023-01-05T04:09:15.060Z,11.36
2023-01-05T04:09:58.388Z,11.34
2023-01-05T04:10:40.494Z,11.27
2023-01-05T04:11:24.517Z,11.38
2023-01-05T04:12:19.061Z,11.38
2023-01-05T04:13:00.907Z,11.19
2023-01-05T04:13:42.918Z,11.34
2023-01-05T04:14:25.004Z,11.34
2023-01-05T04:15:08.173Z,11.26
2023-01-05T04:15:49.936Z,11.27
2023-01-05T04:16:31.722Z,10.75
2023-01-05T04:17:16.355Z,11.29
2023-01-05T04:17:58.012Z,10.84
2023-01-05T04:18:40.183Z,11.19
2023-01-05T04:19:24.145Z,11.25
2023-01-05T04:20:08.603Z,11.19
2023-01-05T04:20:51.003Z,11.24
2023-01-05T04:21:32.831Z,11.23
2023-01-05T04:22:15.412Z,11.26
2023-01-05T04:22:58.654Z,11.26
2023-01-05T04:23:41.159Z,11.24
2023-01-05T04:24:23.589Z,11.21
2023-01-05T04:25:05.616Z,11.23
2023-01-05T04:25:47.867Z,11.26
2023-01-05T04:26:34.652Z,11.20
2023-01-05T04:27:16.301Z,11.25
2023-01-05T04:27:58.929Z,11.21
2023-01-05T04:28:43.800Z,11.22
2023-01-05T04:29:26.271Z,11.21
2023-01-05T04:30:09.957Z,11.21
2023-01-05T04:30:54.708Z,11.21
2023-01-05T04:31:38.470Z,10.63
2023-01-05T04:32:21.136Z,10.82
2023-01-05T04:33:02.895Z,11.23
2023-01-05T04:33:45.458Z,11.06
2023-01-05T04:34:31.239Z,11.14
2023-01-05T04:35:14.999Z,11.15
2023-01-05T04:35:57.263Z,11.20
2023-01-05T04:36:42.346Z,11.24
2023-01-05T04:37:28.520Z,11.15
2023-01-05T04:38:11.224Z,11.25
2023-01-05T04:38:53.117Z,11.26
2023-01-05T04:39:35.693Z,11.11
2023-01-05T04:40:17.525Z,11.26
2023-01-05T04:41:04.956Z,11.27
2023-01-05T04:41:48.576Z,11.29
2023-01-05T04:42:32.111Z,11.32
2023-01-05T04:43:13.757Z,11.31
2023-01-05T04:43:55.367Z,11.26
2023-01-05T04:44:38.632Z,11.31
2023-01-05T04:45:21.386Z,11.24
2023-01-05T04:46:03.905Z,11.27
2023-01-05T04:46:46.077Z,11.29
2023-01-05T04:47:28.426Z,11.31
2023-01-05T04:48:10.962Z,11.31
2023-01-05T04:48:54.157Z,11.30
2023-01-05T04:49:36.719Z,11.26
2023-01-05T04:50:20.185Z,11.33
2023-01-05T04:51:03.637Z,11.23
2023-01-05T04:51:48.921Z,11.23
2023-01-05T04:52:30.830Z,11.31
2023-01-05T04:53:12.412Z,11.27
2023-01-05T04:53:56.034Z,11.35
2023-01-05T04:54:39.436Z,11.29
2023-01-05T04:55:23.048Z,11.21
2023-01-05T04:56:05.781Z,11.17
2023-01-05T04:56:53.545Z,11.29
2023-01-05T04:57:35.730Z,11.31
2023-01-05T04:58:17.477Z,11.25
2023-01-05T04:58:59.114Z,11.30
2023-01-05T04:59:40.785Z,11.24
2023-01-05T05:00:22.984Z,11.23
2023-01-05T05:01:06.369Z,11.23
2023-01-05T05:01:50.298Z,11.22
2023-01-05T05:02:32.404Z,11.22
2023-01-05T05:03:14.787Z,11.29
2023-01-05T05:03:56.477Z,11.28
2023-01-05T05:04:39.824Z,11.22
2023-01-05T05:05:21.502Z,11.23
2023-01-05T05:06:06.934Z,10.90
2023-01-05T05:06:48.539Z,11.27
2023-01-05T05:07:30.735Z,11.22
2023-01-05T05:08:14.512Z,11.23
2023-01-05T05:08:56.370Z,11.25
2023-01-05T05:09:40.025Z,11.24
2023-01-05T05:10:21.804Z,11.02
2023-01-05T05:11:04.237Z,11.23
2023-01-05T05:11:48.496Z,10.73
2023-01-05T05:12:30.211Z,11.23
2023-01-05T05:13:11.905Z,11.18
2023-01-05T05:13:54.070Z,11.21
2023-01-05T05:14:35.881Z,11.10
2023-01-05T05:15:17.989Z,11.12
2023-01-05T05:16:03.757Z,11.04
2023-01-05T05:16:47.276Z,10.90
2023-01-05T05:17:28.999Z,11.00
2023-01-05T05:18:11.039Z,10.96
2023-01-05T05:18:54.234Z,11.01
2023-01-05T05:19:39.766Z,11.13
2023-01-05T05:20:21.558Z,11.08
2023-01-05T05:21:08.410Z,10.84
2023-01-05T05:21:51.517Z,11.25
2023-01-05T05:22:33.400Z,11.21
2023-01-05T05:23:16.719Z,11.13
2023-01-05T05:23:58.317Z,11.23
2023-01-05T05:24:40.096Z,10.98
2023-01-05T05:25:23.185Z,10.98
2023-01-05T05:26:05.633Z,11.13
2023-01-05T05:26:48.219Z,10.94
2023-01-05T05:27:29.814Z,11.19
2023-01-05T05:28:11.382Z,11.01
2023-01-05T05:28:53.105Z,11.06
2023-01-05T05:29:34.733Z,11.02
2023-01-05T05:30:16.522Z,11.11
2023-01-05T05:30:58.562Z,10.79
2023-01-05T05:31:40.716Z,11.20
2023-01-05T05:32:22.515Z,11.25
2023-01-05T05:33:04.231Z,11.25
2023-01-05T05:33:45.981Z,11.24
2023-01-05T05:34:27.718Z,11.21
2023-01-05T05:35:09.538Z,11.14
2023-01-05T05:35:51.362Z,11.20
2023-01-05T05:36:33.053Z,11.07
2023-01-05T05:37:14.701Z,11.30
2023-01-05T05:37:56.973Z,11.19
2023-01-05T05:38:38.723Z,11.19
2023-01-05T05:39:20.648Z,11.20
2023-01-05T05:40:02.382Z,10.85
2023-01-05T05:40:44.119Z,11.21
2023-01-05T05:41:25.891Z,11.23
2023-01-05T05:42:07.531Z,11.30
2023-01-05T05:42:49.147Z,11.20
2023-01-05T05:43:30.711Z,11.27
2023-01-05T05:44:12.325Z,11.25
2023-01-05T05:44:53.959Z,10.96
2023-01-05T05:45:35.628Z,11.17
2023-01-05T05:46:17.323Z,11.24
2023-01-05T05:46:59.136Z,11.30
2023-01-05T05:47:40.822Z,11.42
2023-01-05T05:48:22.474Z,11.33
2023-01-05T05:49:04.764Z,11.52
2023-01-05T05:49:46.428Z,11.32
2023-01-05T05:50:28.267Z,11.36
2023-01-05T05:51:10.062Z,11.53
2023-01-05T05:51:51.680Z,11.52
2023-01-05T05:52:33.302Z,11.32
2023-01-05T05:53:15.185Z,11.52
2023-01-05T05:53:56.903Z,11.54
2023-01-05T05:54:38.540Z,11.30
2023-01-05T05:55:20.169Z,11.09
2023-01-05T05:56:01.837Z,11.52
2023-01-05T05:56:43.490Z,11.38
2023-01-05T05:57:25.139Z,11.33
2023-01-05T05:58:07.063Z,11.58
2023-01-05T05:58:48.787Z,11.51
2023-01-05T05:59:30.457Z,11.53
2023-01-05T06:00:12.781Z,11.45
2023-01-05T06:00:58.883Z,11.64
2023-01-05T06:01:40.675Z,11.25
2023-01-05T06:02:22.575Z,11.50
2023-01-05T06:03:04.603Z,11.39
2023-01-05T06:03:46.368Z,11.31
2023-01-05T06:04:28.114Z,11.49
2023-01-05T06:05:09.753Z,11.32
2023-01-05T06:05:51.810Z,11.57
2023-01-05T06:06:33.408Z,11.39
2023-01-05T06:07:15.117Z,11.66
2023-01-05T06:07:56.692Z,11.40
2023-01-05T06:08:38.348Z,11.55
2023-01-05T06:09:20.035Z,11.59
2023-01-05T06:10:01.826Z,11.69
2023-01-05T06:10:43.424Z,11.52
2023-01-05T06:11:25.096Z,11.47
2023-01-05T06:12:07.336Z,11.57
2023-01-05T06:12:49.208Z,11.68
2023-01-05T06:13:30.916Z,11.69
2023-01-05T06:14:12.671Z,11.67
2023-01-05T06:14:54.322Z,11.63
2023-01-05T06:15:35.917Z,11.57
2023-01-05T06:16:17.615Z,11.51
2023-01-05T06:17:00.590Z,11.59
2023-01-05T06:17:42.266Z,11.22
2023-01-05T06:18:23.930Z,11.46
2023-01-05T06:19:05.581Z,11.67
2023-01-05T06:19:47.163Z,11.29
2023-01-05T06:20:28.758Z,11.67
2023-01-05T06:21:10.401Z,11.19
2023-01-05T06:21:52.179Z,11.49
2023-01-05T06:22:33.914Z,11.57
2023-01-05T06:23:15.548Z,11.56
2023-01-05T06:24:00.190Z,11.57
2023-01-05T06:24:43.578Z,11.61
2023-01-05T06:25:25.220Z,11.62
2023-01-05T06:26:06.897Z,11.64
2023-01-05T06:26:48.509Z,11.39
2023-01-05T06:27:30.230Z,11.60
2023-01-05T06:28:15.640Z,11.35
2023-01-05T06:29:00.218Z,10.93
2023-01-05T06:29:41.925Z,11.59
2023-01-05T06:30:23.553Z,11.67
2023-01-05T06:31:06.158Z,11.57
2023-01-05T06:31:47.790Z,11.58
2023-01-05T06:32:29.440Z,11.30
2023-01-05T06:33:11.035Z,11.43
2023-01-05T06:33:52.792Z,11.23
2023-01-05T06:34:34.367Z,11.45
2023-01-05T06:35:16.066Z,11.58
2023-01-05T06:36:00.608Z,11.40
2023-01-05T06:36:42.308Z,11.26
2023-01-05T06:37:23.901Z,11.49
2023-01-05T06:38:05.646Z,11.37
2023-01-05T06:38:47.429Z,11.35
2023-01-05T06:39:29.162Z,11.40
2023-01-05T06:40:11.874Z,11.51
2023-01-05T06:40:54.619Z,11.56
2023-01-05T06:41:36.295Z,11.20
2023-01-05T06:42:23.032Z,11.50
2023-01-05T06:43:05.158Z,11.45
2023-01-05T06:43:46.785Z,11.20
2023-01-05T06:44:28.442Z,11.41
2023-01-05T06:45:13.371Z,11.50
2023-01-05T06:45:55.038Z,11.45
2023-01-05T06:46:36.683Z,11.39
2023-01-05T06:47:19.018Z,11.43
2023-01-05T06:48:01.068Z,11.59
2023-01-05T06:48:42.712Z,11.46
2023-01-05T06:49:24.424Z,11.56
2023-01-05T06:50:07.025Z,11.57
2023-01-05T06:50:48.712Z,11.49
2023-01-05T06:51:30.437Z,11.56
2023-01-05T06:52:16.199Z,11.45
2023-01-05T06:52:58.964Z,11.54
2023-01-05T06:53:40.585Z,11.36
2023-01-05T06:54:22.274Z,11.15
2023-01-05T06:55:04.451Z,11.31
2023-01-05T06:55:46.085Z,11.54
2023-01-05T06:56:27.697Z,11.56
2023-01-05T06:57:09.434Z,11.44
2023-01-05T06:57:54.418Z,11.41
2023-01-05T06:58:40.365Z,11.27
2023-01-05T06:59:22.009Z,11.30
2023-01-05T07:00:09.819Z,11.53
2023-01-05T07:00:53.945Z,11.35
2023-01-05T07:01:36.136Z,11.26
2023-01-05T07:02:18.080Z,11.41
2023-01-05T07:02:59.753Z,11.36
2023-01-05T07:03:41.483Z,11.18
2023-01-05T07:04:23.296Z,11.47
2023-01-05T07:05:05.667Z,10.75
2023-01-05T07:05:47.242Z,11.26
2023-01-05T07:06:29.053Z,11.45
2023-01-05T07:07:14.604Z,11.45
2023-01-05T07:07:56.276Z,11.30
2023-01-05T07:08:37.861Z,11.27
2023-01-05T07:09:19.506Z,11.04
2023-01-05T07:10:01.240Z,10.99
2023-01-05T07:10:42.816Z,11.42
2023-01-05T07:11:24.433Z,11.26
2023-01-05T07:12:06.625Z,11.34
2023-01-05T07:12:48.213Z,11.37
2023-01-05T07:13:29.801Z,11.38
2023-01-05T07:14:11.429Z,10.89
2023-01-05T07:14:57.529Z,11.13
2023-01-05T07:15:39.687Z,10.99
2023-01-05T07:16:21.466Z,11.35
2023-01-05T07:17:03.382Z,11.23
2023-01-05T07:17:44.983Z,11.30
2023-01-05T07:18:26.558Z,11.30
2023-01-05T07:19:08.139Z,10.96
2023-01-05T07:19:49.788Z,11.13
2023-01-05T07:20:31.430Z,11.31
2023-01-05T07:21:13.014Z,11.36
2023-01-05T07:21:56.905Z,11.22
2023-01-05T07:22:38.820Z,11.32
2023-01-05T07:23:20.447Z,11.36
2023-01-05T07:24:02.080Z,10.76
2023-01-05T07:24:43.749Z,11.14
2023-01-05T07:25:31.143Z,11.37
2023-01-05T07:26:12.859Z,11.18
2023-01-05T07:26:54.478Z,11.28
2023-01-05T07:27:36.098Z,11.37
2023-01-05T07:28:17.671Z,11.39
2023-01-05T07:28:59.225Z,11.40
2023-01-05T07:29:40.886Z,11.40
2023-01-05T07:30:22.686Z,10.92
2023-01-05T07:31:07.187Z,11.40
2023-01-05T07:31:52.169Z,11.41
2023-01-05T07:32:33.957Z,11.27
2023-01-05T07:33:15.537Z,11.19
2023-01-05T07:33:57.121Z,11.39
2023-01-05T07:34:38.709Z,11.01
2023-01-05T07:35:20.352Z,11.37
2023-01-05T07:36:03.997Z,11.38
2023-01-05T07:36:45.621Z,11.22
2023-01-05T07:37:27.487Z,11.19
2023-01-05T07:38:09.251Z,11.16
2023-01-05T07:38:52.257Z,11.22
2023-01-05T07:39:33.990Z,11.25
2023-01-05T07:40:15.671Z,11.21
2023-01-05T07:41:01.306Z,11.15
2023-01-05T07:41:43.775Z,10.97
2023-01-05T07:42:26.128Z,11.36
2023-01-05T07:43:07.856Z,11.37
2023-01-05T07:43:50.032Z,10.96
2023-01-05T07:44:31.677Z,11.26
2023-01-05T07:45:13.336Z,11.18
2023-01-05T07:45:59.592Z,11.20
2023-01-05T07:46:41.272Z,11.23
2023-01-05T07:47:22.994Z,11.22
2023-01-05T07:48:04.715Z,11.34
2023-01-05T07:48:46.385Z,11.37
2023-01-05T07:49:29.349Z,11.43
2023-01-05T07:50:11.052Z,11.27
2023-01-05T07:50:53.303Z,11.26
2023-01-05T07:51:35.713Z,11.09
2023-01-05T07:52:17.752Z,11.33
2023-01-05T07:52:59.905Z,11.31
2023-01-05T07:53:44.597Z,11.37
2023-01-05T07:54:27.428Z,10.94
2023-01-05T07:55:09.656Z,11.38
2023-01-05T07:55:59.124Z,11.34
2023-01-05T07:56:40.842Z,11.35
2023-01-05T07:57:22.486Z,11.31
2023-01-05T07:58:04.114Z,11.28
2023-01-05T07:58:45.747Z,11.14
2023-01-05T07:59:28.298Z,11.36
2023-01-05T08:00:10.870Z,11.44
2023-01-05T08:00:56.169Z,11.39
2023-01-05T08:01:37.860Z,11.39
2023-01-05T08:02:20.515Z,11.16
2023-01-05T08:03:02.376Z,11.36
2023-01-05T08:03:44.577Z,11.37
2023-01-05T08:04:26.441Z,11.32
2023-01-05T08:05:08.837Z,11.33
2023-01-05T08:05:50.471Z,11.49
2023-01-05T08:06:33.327Z,11.24
2023-01-05T08:07:15.677Z,11.16
2023-01-05T08:07:57.310Z,11.42
2023-01-05T08:08:39.154Z,11.48
2023-01-05T08:09:39.791Z,11.42
2023-01-05T08:10:30.651Z,11.23
2023-01-05T08:11:17.009Z,11.50
2023-01-05T08:11:58.853Z,11.46
2023-01-05T08:13:00.494Z,11.47
2023-01-05T08:14:00.328Z,11.59
2023-01-05T08:14:42.021Z,10.89
2023-01-05T08:15:23.795Z,11.53
2023-01-05T08:16:05.982Z,11.22
2023-01-05T08:16:47.760Z,11.54
2023-01-05T08:17:29.413Z,11.57
2023-01-05T08:18:11.227Z,11.44
2023-01-05T08:18:54.550Z,11.46
2023-01-05T08:19:36.261Z,11.58
2023-01-05T08:20:18.215Z,11.34
2023-01-05T08:21:04.353Z,11.57
2023-01-05T08:21:46.022Z,11.58
2023-01-05T08:22:27.638Z,11.51
2023-01-05T08:23:09.381Z,11.58
2023-01-05T08:23:53.056Z,11.31
2023-01-05T08:24:34.829Z,11.35
2023-01-05T08:25:16.582Z,11.56
2023-01-05T08:26:02.795Z,11.45
2023-01-05T08:26:44.573Z,11.50
2023-01-05T08:27:26.402Z,11.46
2023-01-05T08:28:08.001Z,11.46
2023-01-05T08:28:50.953Z,11.50
2023-01-05T08:29:32.662Z,11.52
2023-01-05T08:30:14.802Z,11.34
2023-01-05T08:31:04.644Z,11.47
2023-01-05T08:31:46.394Z,11.55
2023-01-05T08:32:28.151Z,11.45
2023-01-05T08:33:10.264Z,11.54
2023-01-05T08:33:55.429Z,11.48
2023-01-05T08:34:37.224Z,11.54
2023-01-05T08:35:18.883Z,11.51
2023-01-05T08:36:00.718Z,11.48
2023-01-05T08:36:42.402Z,11.50
2023-01-05T08:37:24.061Z,11.59
2023-01-05T08:38:05.689Z,11.21
2023-01-05T08:38:50.738Z,11.50
2023-01-05T08:39:32.512Z,11.57
2023-01-05T08:40:14.281Z,11.58
2023-01-05T08:40:59.617Z,10.77
2023-01-05T08:41:41.330Z,11.36
2023-01-05T08:42:23.262Z,11.50
2023-01-05T08:43:06.350Z,11.41
2023-01-05T08:43:52.710Z,11.57
2023-01-05T08:44:34.400Z,11.37
2023-01-05T08:45:16.122Z,11.38
2023-01-05T08:45:57.884Z,11.59
2023-01-05T08:46:40.081Z,11.62
2023-01-05T08:47:26.538Z,11.59
2023-01-05T08:48:10.450Z,11.67
2023-01-05T08:48:54.648Z,11.41
2023-01-05T08:49:36.267Z,11.30
2023-01-05T08:50:17.950Z,11.68
2023-01-05T08:51:07.510Z,11.71
2023-01-05T08:51:49.179Z,11.69
2023-01-05T08:52:30.799Z,11.67
2023-01-05T08:53:12.521Z,11.62
2023-01-05T08:53:54.418Z,11.53
2023-01-05T08:54:36.087Z,11.71
2023-01-05T08:55:17.744Z,11.49
2023-01-05T08:55:59.459Z,11.53
2023-01-05T08:56:43.233Z,11.70
2023-01-05T08:57:24.865Z,11.40
2023-01-05T08:58:06.565Z,11.64
2023-01-05T08:58:48.180Z,11.69
2023-01-05T08:59:29.833Z,11.43
2023-01-05T09:00:14.164Z,11.16
2023-01-05T09:00:55.878Z,11.55
2023-01-05T09:01:37.627Z,11.48
2023-01-05T09:02:25.487Z,11.63
2023-01-05T09:03:08.950Z,11.18
2023-01-05T09:03:50.872Z,11.66
2023-01-05T09:04:32.516Z,11.61
2023-01-05T09:05:14.651Z,11.52
2023-01-05T09:05:59.360Z,11.50
2023-01-05T09:06:41.396Z,11.57
2023-01-05T09:07:23.296Z,11.70
2023-01-05T09:08:05.649Z,11.58
2023-01-05T09:08:47.715Z,11.61
2023-01-05T09:09:29.563Z,11.41
2023-01-05T09:10:11.564Z,11.57
2023-01-05T09:10:53.283Z,11.66
2023-01-05T09:11:35.082Z,11.51
2023-01-05T09:12:17.252Z,11.51
2023-01-05T09:12:59.016Z,11.41
2023-01-05T09:13:42.485Z,11.75
2023-01-05T09:14:24.183Z,11.28
2023-01-05T09:15:07.025Z,11.41
2023-01-05T09:15:51.072Z,11.63
2023-01-05T09:17:06.364Z,11.64
2023-01-05T09:17:37.204Z,11.64
2023-01-05T09:18:18.933Z,11.33
2023-01-05T09:19:02.925Z,11.54
2023-01-05T09:19:44.689Z,11.56
2023-01-05T09:20:26.351Z,11.56
2023-01-05T09:21:09.510Z,11.67
2023-01-05T09:22:03.691Z,11.62
2023-01-05T09:22:45.391Z,11.61
2023-01-05T09:23:27.332Z,11.64
2023-01-05T09:24:12.861Z,11.58
2023-01-05T09:24:54.618Z,11.70
2023-01-05T09:25:38.591Z,11.35
2023-01-05T09:26:20.589Z,11.81
2023-01-05T09:27:03.840Z,11.72
2023-01-05T09:27:45.464Z,11.60
2023-01-05T09:28:27.225Z,11.39
2023-01-05T09:29:10.591Z,11.81
2023-01-05T09:29:52.395Z,11.81
2023-01-05T09:30:41.910Z,11.66
2023-01-05T09:31:26.207Z,11.81
2023-01-05T09:32:08.144Z,11.77
2023-01-05T09:32:49.839Z,11.67
2023-01-05T09:33:31.485Z,11.88
2023-01-05T09:34:13.353Z,11.91
2023-01-05T09:34:55.008Z,11.93
2023-01-05T09:35:36.701Z,11.84
2023-01-05T09:36:19.108Z,11.84
2023-01-05T09:37:03.506Z,11.91
2023-01-05T09:37:45.290Z,11.82
2023-01-05T09:38:27.087Z,11.81
2023-01-05T09:39:10.079Z,11.90
2023-01-05T09:39:51.762Z,11.89